Time;durP1;ratioP1;P1;durP2;ratioP2;P2;SDS_P1;SDS_P2;PMS_P1;PMS_P2;Temp;Humidity;BMP_temperature;BMP_pressure;BME280_temperature;BME280_humidity;BME280_pressure;Samples;Min_cycle;Max_cycle;Signal;HPM_P1;HPM_P2
2021/04/30 00:01:38;;;;;;;9.50;5.20;;;7.90;99.90;;;;;;5032719;28;20373;-69
2021/04/30 00:04:04;;;;;;;10.73;5.32;;;7.80;99.90;;;;;;5032319;28;20070;-69
2021/04/30 00:06:30;;;;;;;10.95;6.05;;;7.80;99.90;;;;;;5032756;28;20033;-68
2021/04/30 00:08:55;;;;;;;9.55;5.40;;;7.80;99.90;;;;;;5047723;28;20075;-68
2021/04/30 00:11:21;;;;;;;10.05;6.07;;;7.80;99.90;;;;;;5032414;28;20033;-68
2021/04/30 00:13:47;;;;;;;11.85;6.55;;;7.80;99.90;;;;;;5014680;28;20069;-69
2021/04/30 00:16:13;;;;;;;12.27;6.72;;;7.80;99.90;;;;;;5032241;28;20044;-69
2021/04/30 00:18:39;;;;;;;14.82;7.72;;;8.00;99.90;;;;;;5032190;28;20041;-69
2021/04/30 00:21:06;;;;;;;11.13;6.40;;;8.10;99.90;;;;;;5032156;28;20057;-69
2021/04/30 00:23:32;;;;;;;9.88;6.70;;;8.10;99.90;;;;;;5032139;28;20397;-70
2021/04/30 00:26:02;;;;;;;12.55;7.00;;;8.00;99.90;;;;;;5032514;28;20103;-69
2021/04/30 00:28:28;;;;;;;13.25;7.00;;;8.10;99.90;;;;;;5032056;28;20026;-70
2021/04/30 00:30:54;;;;;;;8.57;5.65;;;8.10;99.90;;;;;;5032486;28;20039;-69
2021/04/30 00:33:23;;;;;;;9.30;5.97;;;8.10;99.90;;;;;;5032006;28;20033;-69
2021/04/30 00:35:48;;;;;;;10.30;6.47;;;7.80;99.90;;;;;;5032283;28;20034;-69
2021/04/30 00:38:15;;;;;;;9.35;6.25;;;7.80;99.90;;;;;;5032009;28;20030;-70
2021/04/30 00:40:41;;;;;;;9.40;6.07;;;7.70;99.90;;;;;;5032391;28;20037;-69
2021/04/30 00:43:07;;;;;;;8.95;5.70;;;7.70;99.90;;;;;;5031853;28;20094;-70
2021/04/30 00:45:33;;;;;;;11.35;5.85;;;7.60;99.90;;;;;;5032052;28;20030;-69
2021/04/30 00:47:59;;;;;;;12.68;5.97;;;7.50;99.90;;;;;;5032142;28;20036;-70
2021/04/30 00:50:28;;;;;;;15.15;7.10;;;7.50;99.90;;;;;;5031912;28;20390;-69
2021/04/30 00:52:57;;;;;;;12.00;6.72;;;7.40;99.90;;;;;;5031873;28;20072;-69
2021/04/30 00:55:23;;;;;;;12.13;6.60;;;7.50;99.90;;;;;;5031567;28;20398;-69
2021/04/30 00:58:02;;;;;;;11.75;6.68;;;7.50;99.90;;;;;;5031906;28;20034;-69
2021/04/30 01:00:31;;;;;;;11.63;6.28;;;7.40;99.90;;;;;;5032030;28;20037;-70
2021/04/30 01:02:58;;;;;;;9.93;6.38;;;7.30;99.90;;;;;;5046917;28;20489;-69
2021/04/30 01:05:24;;;;;;;9.90;6.97;;;7.20;99.90;;;;;;5031844;28;20037;-69
2021/04/30 01:07:51;;;;;;;10.90;6.18;;;7.20;99.90;;;;;;5035348;28;20065;-69
2021/04/30 01:10:18;;;;;;;10.32;6.88;;;7.00;99.90;;;;;;5051049;28;20690;-69
2021/04/30 01:12:44;;;;;;;14.60;6.30;;;7.00;99.90;;;;;;5035897;28;20030;-68
2021/04/30 01:15:13;;;;;;;10.38;6.90;;;7.00;99.90;;;;;;5035817;28;20424;-69
2021/04/30 01:17:40;;;;;;;10.10;6.25;;;6.90;99.90;;;;;;5035836;28;20040;-66
2021/04/30 01:20:08;;;;;;;11.98;6.15;;;6.90;99.90;;;;;;5035297;28;20036;-69
2021/04/30 01:22:40;;;;;;;12.93;6.50;;;6.60;99.90;;;;;;5035423;28;20052;-69
2021/04/30 01:25:10;;;;;;;14.13;7.32;;;6.50;99.90;;;;;;5035475;28;20087;-69
2021/04/30 01:27:36;;;;;;;12.65;6.85;;;6.30;99.90;;;;;;5035860;28;20030;-68
2021/04/30 01:30:06;;;;;;;11.80;7.63;;;6.10;99.90;;;;;;5035518;28;20045;-69
2021/04/30 01:32:32;;;;;;;13.75;7.50;;;6.10;99.90;;;;;;5035701;28;20082;-68
2021/04/30 01:34:58;;;;;;;13.90;7.50;;;6.10;99.90;;;;;;5035377;28;20029;-68
2021/04/30 01:37:25;;;;;;;11.73;7.78;;;6.10;99.90;;;;;;5035451;28;20041;-69
2021/04/30 01:39:52;;;;;;;10.98;6.88;;;6.10;99.90;;;;;;5035212;28;20182;-69
2021/04/30 01:42:19;;;;;;;11.10;7.18;;;6.10;99.90;;;;;;5035108;28;20041;-69
2021/04/30 01:44:48;;;;;;;17.52;7.47;;;6.10;99.90;;;;;;5035351;28;20031;-69
2021/04/30 01:47:14;;;;;;;11.38;7.35;;;6.00;99.90;;;;;;5035334;28;20026;-69
2021/04/30 01:49:40;;;;;;;10.48;7.28;;;5.90;99.90;;;;;;5034947;28;20487;-69
2021/04/30 01:52:05;;;;;;;12.32;7.13;;;5.90;99.90;;;;;;5034913;28;20025;-68
2021/04/30 01:54:31;;;;;;;12.23;7.75;;;5.80;99.90;;;;;;5034766;28;20547;-69
2021/04/30 01:56:57;;;;;;;13.25;7.57;;;5.70;99.90;;;;;;5034956;28;20042;-69
2021/04/30 01:59:23;;;;;;;14.75;7.10;;;5.70;99.90;;;;;;5035048;28;20748;-69
2021/04/30 02:01:48;;;;;;;12.63;7.47;;;5.60;99.90;;;;;;5035192;28;20048;-69
2021/04/30 02:04:14;;;;;;;13.02;8.23;;;5.60;99.90;;;;;;5034549;28;20026;-69
2021/04/30 02:06:41;;;;;;;12.73;6.68;;;5.80;99.90;;;;;;5035019;28;20025;-69
2021/04/30 02:09:08;;;;;;;11.65;7.28;;;5.80;99.90;;;;;;5017152;28;20033;-69
2021/04/30 02:11:35;;;;;;;14.00;7.43;;;5.80;99.90;;;;;;5034707;28;20030;-69
2021/04/30 02:14:04;;;;;;;13.18;8.50;;;5.80;99.90;;;;;;5034769;28;20045;-69
2021/04/30 02:16:31;;;;;;;12.88;7.43;;;5.80;99.90;;;;;;5034781;28;20040;-69
2021/04/30 02:18:58;;;;;;;10.93;6.68;;;5.60;99.90;;;;;;5033707;28;20410;-69
2021/04/30 02:21:24;;;;;;;15.65;7.28;;;5.70;99.90;;;;;;5049583;28;20072;-69
2021/04/30 02:23:50;;;;;;;13.73;8.40;;;5.70;99.90;;;;;;5034332;28;20033;-69
2021/04/30 02:26:16;;;;;;;14.50;7.78;;;5.60;99.90;;;;;;5034493;28;20032;-69
2021/04/30 02:28:45;;;;;;;13.57;8.38;;;5.50;99.90;;;;;;5034324;28;20021;-69
2021/04/30 02:31:14;;;;;;;12.45;7.82;;;5.50;99.90;;;;;;5034384;28;20044;-69
2021/04/30 02:33:42;;;;;;;13.85;8.40;;;5.40;99.90;;;;;;5034198;28;20510;-69
2021/04/30 02:36:08;;;;;;;13.40;7.20;;;5.50;99.90;;;;;;5034218;28;20048;-69
2021/04/30 02:38:35;;;;;;;12.27;7.75;;;5.50;99.90;;;;;;5034214;28;20087;-69
2021/04/30 02:41:01;;;;;;;13.63;7.18;;;5.50;99.90;;;;;;5034328;28;20448;-69
2021/04/30 02:43:27;;;;;;;14.20;8.15;;;5.40;99.90;;;;;;5034155;28;20075;-69
2021/04/30 02:45:54;;;;;;;15.13;9.38;;;5.60;99.90;;;;;;5033885;28;20034;-69
2021/04/30 02:48:29;;;;;;;15.20;8.20;;;5.60;99.90;;;;;;5034039;28;20038;-69
2021/04/30 02:50:59;;;;;;;14.35;8.10;;;5.60;99.90;;;;;;5016283;28;20039;-69
2021/04/30 02:53:25;;;;;;;14.10;8.73;;;5.50;99.90;;;;;;5033955;28;20118;-69
2021/04/30 02:55:52;;;;;;;11.35;7.88;;;5.50;99.90;;;;;;5033766;28;20057;-69
2021/04/30 02:58:18;;;;;;;15.40;8.15;;;5.60;99.90;;;;;;5033645;28;20485;-68
2021/04/30 03:00:45;;;;;;;15.30;8.80;;;5.60;99.90;;;;;;5049249;28;20458;-69
2021/04/30 03:03:10;;;;;;;14.43;8.63;;;5.70;99.90;;;;;;5033535;28;20400;-69
2021/04/30 03:05:37;;;;;;;14.95;8.57;;;5.80;99.90;;;;;;5033709;28;20105;-69
2021/04/30 03:08:03;;;;;;;14.43;8.43;;;5.60;99.90;;;;;;5033886;28;20026;-69
2021/04/30 03:10:28;;;;;;;20.10;8.88;;;5.50;99.90;;;;;;5033760;28;20359;-69
2021/04/30 03:12:54;;;;;;;12.73;7.82;;;5.60;99.90;;;;;;5033716;28;20030;-69
2021/04/30 03:15:21;;;;;;;14.25;8.32;;;5.50;99.90;;;;;;5033217;28;20041;-69
2021/04/30 03:17:47;;;;;;;13.25;7.40;;;5.20;99.90;;;;;;5033587;28;20060;-69
2021/04/30 03:20:16;;;;;;;12.73;7.68;;;5.10;99.90;;;;;;5033159;28;20482;-69
2021/04/30 03:22:41;;;;;;;13.25;8.30;;;5.00;99.90;;;;;;5033168;28;20064;-69
2021/04/30 03:25:09;;;;;;;13.38;8.10;;;5.00;99.90;;;;;;5015863;28;20493;-69
2021/04/30 03:27:35;;;;;;;16.88;8.48;;;4.90;99.90;;;;;;5033249;28;20034;-69
2021/04/30 03:30:01;;;;;;;13.63;8.20;;;4.60;99.90;;;;;;5033433;28;20033;-69
2021/04/30 03:32:26;;;;;;;16.10;8.23;;;4.50;99.90;;;;;;5033048;28;20026;-69
2021/04/30 03:34:53;;;;;;;15.35;9.07;;;4.40;99.90;;;;;;5033154;28;20037;-69
2021/04/30 03:37:21;;;;;;;14.98;8.98;;;4.50;99.90;;;;;;5033197;28;20025;-69
2021/04/30 03:39:47;;;;;;;11.82;7.93;;;4.70;99.90;;;;;;5032980;28;20059;-68
2021/04/30 03:42:13;;;;;;;12.25;7.97;;;4.80;99.90;;;;;;5032747;28;20068;-69
2021/04/30 03:44:39;;;;;;;17.65;8.15;;;4.90;99.90;;;;;;5031375;28;20057;-68
2021/04/30 03:47:05;;;;;;;14.40;8.65;;;4.90;99.90;;;;;;5033144;28;20041;-69
2021/04/30 03:49:30;;;;;;;15.65;8.23;;;5.00;99.90;;;;;;5032807;28;20026;-69
2021/04/30 03:51:56;;;;;;;15.90;9.43;;;5.10;99.90;;;;;;5032506;28;20033;-73
2021/04/30 03:54:31;;;;;;;13.43;7.78;;;5.10;99.90;;;;;;5032010;28;20037;-73
2021/04/30 03:56:58;;;;;;;16.63;8.38;;;5.20;99.90;;;;;;5032567;28;20224;-73
2021/04/30 03:59:24;;;;;;;15.45;8.45;;;5.20;99.90;;;;;;5036808;28;20494;-74
2021/04/30 04:01:50;;;;;;;17.80;9.10;;;5.10;99.90;;;;;;5012914;28;20030;-73
2021/04/30 04:04:16;;;;;;;13.77;8.73;;;5.10;99.90;;;;;;5012611;28;20030;-72
2021/04/30 04:06:42;;;;;;;14.13;9.40;;;5.00;99.90;;;;;;5012605;28;20037;-72
2021/04/30 04:09:08;;;;;;;14.63;8.85;;;4.90;99.90;;;;;;5012416;28;20486;-73
2021/04/30 04:11:33;;;;;;;15.25;9.02;;;4.90;99.90;;;;;;5012650;28;20030;-75
2021/04/30 04:13:59;;;;;;;16.00;8.20;;;4.60;99.90;;;;;;5012923;28;20072;-76
2021/04/30 04:16:25;;;;;;;14.30;8.70;;;4.60;99.90;;;;;;5012569;28;20030;-75
2021/04/30 04:18:51;;;;;;;16.60;9.02;;;4.50;99.90;;;;;;5013033;28;20430;-74
2021/04/30 04:21:16;;;;;;;18.27;9.52;;;4.20;99.90;;;;;;5016849;28;20045;-72
2021/04/30 04:23:42;;;;;;;14.80;9.32;;;4.30;99.90;;;;;;5032416;28;20049;-73
2021/04/30 04:26:08;;;;;;;20.60;9.90;;;4.30;99.90;;;;;;5032188;28;20029;-74
2021/04/30 04:28:34;;;;;;;17.13;11.18;;;4.50;99.90;;;;;;5032130;28;20033;-75
2021/04/30 04:30:59;;;;;;;18.02;9.98;;;4.70;99.90;;;;;;5032492;28;20121;-72
2021/04/30 04:33:25;;;;;;;14.65;9.25;;;4.80;99.90;;;;;;5032274;28;20113;-69
2021/04/30 04:35:51;;;;;;;17.27;10.00;;;5.00;99.90;;;;;;5032218;28;20044;-76
2021/04/30 04:38:17;;;;;;;16.92;9.52;;;5.20;99.90;;;;;;5032311;28;20076;-71
2021/04/30 04:40:43;;;;;;;18.63;10.00;;;5.20;99.90;;;;;;5032700;28;20049;-71
2021/04/30 04:43:10;;;;;;;23.30;11.30;;;5.30;99.90;;;;;;5038802;28;20497;-72
2021/04/30 04:45:35;;;;;;;19.33;10.55;;;5.30;99.90;;;;;;5038731;28;20516;-71
2021/04/30 04:48:01;;;;;;;16.15;9.52;;;5.50;99.90;;;;;;5038927;28;20025;-73
2021/04/30 04:50:27;;;;;;;15.95;9.77;;;5.50;99.90;;;;;;5038538;28;20056;-73
2021/04/30 04:52:52;;;;;;;17.20;9.25;;;5.60;99.90;;;;;;5038540;28;20104;-73
2021/04/30 04:55:18;;;;;;;16.02;10.07;;;5.60;99.90;;;;;;5038613;28;20063;-73
2021/04/30 04:57:45;;;;;;;15.35;9.90;;;5.40;99.90;;;;;;5038451;28;20385;-74
2021/04/30 05:00:13;;;;;;;16.20;9.05;;;5.40;99.90;;;;;;5037689;28;20117;-73
2021/04/30 05:02:39;;;;;;;58.80;28.83;;;5.40;99.90;;;;;;5038803;28;20030;-73
2021/04/30 05:05:07;;;;;;;20.55;11.77;;;5.40;99.90;;;;;;5038473;28;20044;-73
2021/04/30 05:07:33;;;;;;;15.18;9.02;;;5.40;99.90;;;;;;5038641;28;20026;-73
2021/04/30 05:09:58;;;;;;;16.45;9.57;;;5.40;99.90;;;;;;5038523;28;20091;-74
2021/04/30 05:12:24;;;;;;;15.70;9.25;;;5.50;99.90;;;;;;5038493;28;20040;-73
2021/04/30 05:14:50;;;;;;;14.35;8.95;;;5.50;99.90;;;;;;5038199;28;20474;-73
2021/04/30 05:17:16;;;;;;;17.40;10.63;;;5.50;99.90;;;;;;5038434;28;20037;-74
2021/04/30 05:19:42;;;;;;;14.38;8.50;;;5.50;99.90;;;;;;5038246;28;20083;-74
2021/04/30 05:22:12;;;;;;;16.67;8.70;;;5.50;99.90;;;;;;5038047;28;20053;-75
2021/04/30 05:24:42;;;;;;;79.25;39.20;;;5.60;99.90;;;;;;5053146;28;20504;-75
2021/04/30 05:27:12;;;;;;;27.30;15.13;;;5.60;99.90;;;;;;5038381;28;20075;-76
2021/04/30 05:29:43;;;;;;;16.00;8.68;;;5.80;99.90;;;;;;5038158;28;20045;-74
2021/04/30 05:32:10;;;;;;;17.35;9.20;;;5.80;99.90;;;;;;5036702;28;20063;-73
2021/04/30 05:34:38;;;;;;;19.35;9.32;;;5.80;99.90;;;;;;5037688;28;20045;-75
2021/04/30 05:37:04;;;;;;;15.93;8.98;;;6.00;99.90;;;;;;5038087;28;20363;-73
2021/04/30 05:39:30;;;;;;;17.25;9.40;;;6.20;99.90;;;;;;5037894;28;20067;-77
2021/04/30 05:41:56;;;;;;;13.40;8.15;;;6.40;99.90;;;;;;5038210;28;20041;-75
2021/04/30 05:44:22;;;;;;;23.88;9.98;;;6.70;99.90;;;;;;5037876;28;20033;-75
2021/04/30 05:46:48;;;;;;;19.48;9.77;;;6.90;99.90;;;;;;5037476;28;20045;-76
2021/04/30 05:49:14;;;;;;;15.90;9.63;;;6.70;99.90;;;;;;5038348;28;20033;-74
2021/04/30 05:51:40;;;;;;;17.15;9.35;;;6.80;99.90;;;;;;5037729;28;20034;-75
2021/04/30 05:54:06;;;;;;;16.33;9.98;;;6.90;99.90;;;;;;5046271;28;20112;-75
2021/04/30 05:56:32;;;;;;;18.75;9.63;;;7.10;99.90;;;;;;5054587;28;20043;-74
2021/04/30 05:58:58;;;;;;;18.40;9.85;;;7.30;99.90;;;;;;5054711;28;20473;-75
2021/04/30 06:01:24;;;;;;;20.80;10.50;;;7.40;99.90;;;;;;5054794;28;20029;-74
2021/04/30 06:03:50;;;;;;;25.58;13.82;;;7.50;99.90;;;;;;5054904;28;20059;-73
2021/04/30 06:06:16;;;;;;;18.63;10.00;;;7.40;99.90;;;;;;5039226;28;20036;-75
2021/04/30 06:08:42;;;;;;;13.10;8.75;;;7.30;99.90;;;;;;5014808;28;20096;-74
2021/04/30 06:11:08;;;;;;;16.10;9.48;;;7.50;99.90;;;;;;5014801;28;20471;-74
2021/04/30 06:13:34;;;;;;;15.75;8.95;;;7.20;99.90;;;;;;5014748;28;20030;-74
2021/04/30 06:16:00;;;;;;;15.18;8.45;;;7.10;99.90;;;;;;5014761;28;20073;-75
2021/04/30 06:18:26;;;;;;;16.85;9.45;;;7.00;99.90;;;;;;5014668;28;20049;-73
2021/04/30 06:20:52;;;;;;;15.60;9.00;;;7.20;99.90;;;;;;5015813;28;20391;-74
2021/04/30 06:23:18;;;;;;;16.98;8.75;;;7.50;99.90;;;;;;5043318;28;20037;-73
2021/04/30 06:25:43;;;;;;;19.92;9.27;;;7.60;99.90;;;;;;5053947;28;20040;-74
2021/04/30 06:28:09;;;;;;;17.15;8.93;;;7.60;99.90;;;;;;5054512;28;20390;-74
2021/04/30 06:30:35;;;;;;;19.13;9.52;;;7.60;99.90;;;;;;5054016;28;20068;-74
2021/04/30 06:33:01;;;;;;;13.57;8.25;;;7.70;99.90;;;;;;5054350;28;20069;-74
2021/04/30 06:35:29;;;;;;;11.63;7.90;;;7.80;99.90;;;;;;5053867;28;20033;-74
2021/04/30 06:37:54;;;;;;;15.02;9.50;;;7.80;99.90;;;;;;5054285;28;20128;-75
2021/04/30 06:40:20;;;;;;;16.52;8.48;;;7.80;99.90;;;;;;5053933;28;20481;-75
2021/04/30 06:42:46;;;;;;;18.15;9.40;;;8.10;99.90;;;;;;5054165;28;20374;-73
2021/04/30 06:45:12;;;;;;;15.25;8.63;;;8.10;99.90;;;;;;5054185;28;20029;-75
2021/04/30 06:47:38;;;;;;;19.45;9.40;;;8.40;99.90;;;;;;5053946;28;20090;-75
2021/04/30 06:50:05;;;;;;;18.05;8.70;;;8.50;99.90;;;;;;5054148;28;20124;-76
2021/04/30 06:52:30;;;;;;;15.77;9.02;;;8.60;99.90;;;;;;5051486;28;20028;-75
2021/04/30 06:54:56;;;;;;;17.20;9.07;;;8.60;99.90;;;;;;5033754;28;20092;-75
2021/04/30 06:57:22;;;;;;;18.48;9.43;;;8.60;99.90;;;;;;5033630;28;20033;-74
2021/04/30 06:59:48;;;;;;;15.93;8.35;;;8.70;99.90;;;;;;5033923;28;20048;-74
2021/04/30 07:02:13;;;;;;;16.85;8.82;;;8.80;99.90;;;;;;5033567;28;20064;-75
2021/04/30 07:04:39;;;;;;;17.83;8.90;;;8.60;99.90;;;;;;5033345;28;20536;-75
2021/04/30 07:07:05;;;;;;;16.48;9.07;;;8.70;99.90;;;;;;5033450;28;20026;-74
2021/04/30 07:09:31;;;;;;;16.13;8.73;;;8.70;99.90;;;;;;5033620;28;20041;-75
2021/04/30 07:11:57;;;;;;;14.27;9.13;;;8.70;99.90;;;;;;5033404;28;20083;-74
2021/04/30 07:14:23;;;;;;;17.70;9.30;;;8.70;99.90;;;;;;5033186;28;20029;-75
2021/04/30 07:16:49;;;;;;;17.30;9.35;;;9.00;99.90;;;;;;5033613;28;20076;-75
2021/04/30 07:19:15;;;;;;;15.40;9.07;;;8.90;99.90;;;;;;5033408;28;20505;-75
2021/04/30 07:21:40;;;;;;;16.20;8.77;;;9.00;99.90;;;;;;5033134;28;20167;-76
2021/04/30 07:24:07;;;;;;;12.95;8.15;;;9.10;99.90;;;;;;5048671;28;20025;-74
2021/04/30 07:26:33;;;;;;;14.27;8.05;;;9.10;99.90;;;;;;5053328;28;20063;-74
2021/04/30 07:28:59;;;;;;;14.98;8.23;;;9.20;99.90;;;;;;5053025;28;20108;-75
2021/04/30 07:31:25;;;;;;;16.70;9.40;;;9.30;99.90;;;;;;5053175;28;20085;-75
2021/04/30 07:33:50;;;;;;;13.48;8.45;;;9.40;99.90;;;;;;5052914;28;20056;-77
2021/04/30 07:36:17;;;;;;;11.38;7.80;;;9.50;99.90;;;;;;5053026;28;20024;-73
2021/04/30 07:38:43;;;;;;;14.77;9.32;;;9.60;99.90;;;;;;5052937;28;20060;-75
2021/04/30 07:41:10;;;;;;;12.93;8.43;;;9.50;99.90;;;;;;5053208;28;20117;-74
2021/04/30 07:43:36;;;;;;;13.18;8.48;;;9.50;99.90;;;;;;5052825;28;20021;-75
2021/04/30 07:46:02;;;;;;;13.65;8.93;;;9.50;99.90;;;;;;5052644;28;20120;-73
2021/04/30 07:48:29;;;;;;;12.25;7.95;;;9.30;99.90;;;;;;5051540;28;20121;-75
2021/04/30 07:50:57;;;;;;;15.88;8.50;;;9.60;99.90;;;;;;5052878;28;20033;-76
2021/04/30 07:53:22;;;;;;;14.30;8.65;;;9.70;99.90;;;;;;5043243;28;20029;-76
2021/04/30 07:55:48;;;;;;;13.13;8.13;;;9.80;99.90;;;;;;5032335;28;20052;-75
2021/04/30 07:58:14;;;;;;;14.48;7.85;;;9.80;99.90;;;;;;5032934;28;20034;-76
2021/04/30 08:00:40;;;;;;;16.02;8.25;;;10.00;99.90;;;;;;5032695;28;20116;-75
2021/04/30 08:03:06;;;;;;;12.40;7.70;;;9.70;99.90;;;;;;5032809;28;20030;-75
2021/04/30 08:05:32;;;;;;;13.73;7.78;;;10.10;99.90;;;;;;5032853;28;20092;-75
2021/04/30 08:08:03;;;;;;;13.52;8.05;;;10.10;99.90;;;;;;5034997;28;20108;-75
2021/04/30 08:10:29;;;;;;;11.88;7.90;;;10.10;99.90;;;;;;5032204;28;20087;-75
2021/04/30 08:12:55;;;;;;;15.48;8.57;;;10.20;99.90;;;;;;5032636;28;20025;-76
2021/04/30 08:15:21;;;;;;;12.82;7.25;;;10.70;99.40;;;;;;5032284;28;20029;-74
2021/04/30 08:17:47;;;;;;;13.88;7.43;;;11.00;98.90;;;;;;5032001;28;20033;-75
2021/04/30 08:20:13;;;;;;;15.80;7.88;;;11.20;97.80;;;;;;5014596;28;20033;-76
2021/04/30 08:22:39;;;;;;;11.10;7.43;;;11.30;97.70;;;;;;5035552;28;20091;-74
2021/04/30 08:25:07;;;;;;;13.77;6.63;;;11.20;96.40;;;;;;5052064;28;20427;-74
2021/04/30 08:27:34;;;;;;;11.98;7.47;;;11.30;96.60;;;;;;5034398;28;20029;-70
2021/04/30 08:30:00;;;;;;;13.43;7.70;;;10.80;97.10;;;;;;5052391;28;20029;-74
2021/04/30 08:32:26;;;;;;;12.00;7.00;;;10.80;97.60;;;;;;5034224;28;20029;-74
2021/04/30 08:34:54;;;;;;;11.13;6.03;;;11.20;97.80;;;;;;5052170;28;20044;-75
2021/04/30 08:37:19;;;;;;;9.50;5.70;;;11.40;96.30;;;;;;5052392;28;20095;-76
2021/04/30 08:39:45;;;;;;;10.82;6.07;;;11.50;95.90;;;;;;5052288;28;20025;-75
2021/04/30 08:42:11;;;;;;;12.43;5.85;;;11.60;94.40;;;;;;5052589;28;20039;-75
2021/04/30 08:44:39;;;;;;;9.13;5.63;;;11.80;93.60;;;;;;5051957;28;20500;-75
2021/04/30 08:47:05;;;;;;;9.90;5.72;;;11.30;93.50;;;;;;5052719;28;20037;-77
2021/04/30 08:49:31;;;;;;;12.40;7.13;;;11.90;93.70;;;;;;5052811;28;20032;-74
2021/04/30 08:51:57;;;;;;;10.75;7.25;;;11.90;94.30;;;;;;5052566;28;20033;-75
2021/04/30 08:54:23;;;;;;;10.90;6.95;;;12.10;93.90;;;;;;5035281;28;20036;-74
2021/04/30 08:56:54;;;;;;;12.88;7.13;;;12.20;93.50;;;;;;5032610;28;20351;-75
2021/04/30 08:59:26;;;;;;;12.75;7.00;;;12.30;93.40;;;;;;5046904;28;20025;-73
2021/04/30 09:01:53;;;;;;;10.95;6.93;;;12.40;92.60;;;;;;5031822;28;20037;-75
2021/04/30 09:04:19;;;;;;;12.15;7.78;;;12.30;91.80;;;;;;5031751;28;20116;-75
2021/04/30 09:06:47;;;;;;;12.05;6.18;;;12.10;92.20;;;;;;5031984;28;20109;-75
2021/04/30 09:09:16;;;;;;;14.98;7.50;;;12.10;91.10;;;;;;5031926;28;20027;-74
2021/04/30 09:11:46;;;;;;;11.63;7.13;;;12.10;90.90;;;;;;5031845;28;20025;-74
2021/04/30 09:14:32;;;;;;;12.20;7.47;;;11.80;92.00;;;;;;5032005;28;20052;-75
2021/04/30 09:17:09;;;;;;;13.63;6.90;;;11.70;92.60;;;;;;5031706;28;20490;-74
2021/04/30 09:19:58;;;;;;;10.90;6.68;;;11.90;91.90;;;;;;5031576;28;20030;-74
2021/04/30 09:22:35;;;;;;;11.10;7.10;;;11.60;91.30;;;;;;5047836;28;20041;-74
2021/04/30 09:25:06;;;;;;;18.85;6.50;;;11.70;92.70;;;;;;5051889;28;20040;-74
2021/04/30 09:27:40;;;;;;;13.88;7.30;;;11.50;92.20;;;;;;5052601;28;20037;-75
2021/04/30 09:30:32;;;;;;;14.20;7.28;;;11.70;93.60;;;;;;5055417;28;20477;-75
2021/04/30 09:33:16;;;;;;;13.70;7.85;;;11.80;93.30;;;;;;5055558;28;20048;-74
2021/04/30 09:35:58;;;;;;;14.70;8.02;;;11.50;94.30;;;;;;5055293;28;20041;-73
2021/04/30 09:38:32;;;;;;;14.88;7.95;;;11.50;94.40;;;;;;5055256;28;20029;-74
2021/04/30 09:41:00;;;;;;;12.30;7.75;;;11.40;94.70;;;;;;5054972;28;20116;-75
2021/04/30 09:43:42;;;;;;;16.42;7.97;;;11.40;94.60;;;;;;5055219;28;20032;-75
2021/04/30 09:46:34;;;;;;;14.07;7.32;;;11.30;94.00;;;;;;5054227;28;20083;-74
2021/04/30 09:49:07;;;;;;;14.77;7.18;;;11.30;94.80;;;;;;5055337;28;20025;-75
2021/04/30 09:51:47;;;;;;;12.40;7.70;;;11.30;95.60;;;;;;5055137;28;20041;-75
2021/04/30 09:54:30;;;;;;;11.10;7.68;;;11.40;95.70;;;;;;5038382;28;20042;-74
2021/04/30 09:57:07;;;;;;;11.45;7.65;;;11.30;95.80;;;;;;5034695;28;20500;-74
2021/04/30 09:59:35;;;;;;;15.52;7.95;;;11.30;96.10;;;;;;5034795;28;20033;-75
2021/04/30 10:02:15;;;;;;;10.52;6.93;;;11.40;96.40;;;;;;5034675;28;20091;-73
2021/04/30 10:04:43;;;;;;;14.82;7.35;;;11.40;95.90;;;;;;5016741;28;20470;-73
2021/04/30 10:07:11;;;;;;;13.80;7.65;;;11.50;95.60;;;;;;5034475;28;20055;-75
2021/04/30 10:09:38;;;;;;;12.85;7.15;;;11.20;95.90;;;;;;5034700;28;20103;-74
2021/04/30 10:12:22;;;;;;;12.80;7.60;;;11.40;96.40;;;;;;5037094;28;20099;-73
2021/04/30 10:14:49;;;;;;;14.63;6.80;;;11.40;96.10;;;;;;5034557;28;20037;-74
2021/04/30 10:17:15;;;;;;;15.43;7.50;;;11.40;95.50;;;;;;5034391;28;20577;-74
2021/04/30 10:19:46;;;;;;;16.52;7.70;;;11.40;95.30;;;;;;5034198;28;20433;-73
2021/04/30 10:22:16;;;;;;;28.08;15.23;;;11.40;95.30;;;;;;5049449;28;20045;-76
2021/04/30 10:24:53;;;;;;;12.60;7.57;;;11.30;95.10;;;;;;5034175;28;20037;-75
2021/04/30 10:27:37;;;;;;;11.90;6.63;;;11.10;95.20;;;;;;5034547;28;20109;-74
2021/04/30 10:30:34;;;;;;;11.43;6.38;;;11.10;95.30;;;;;;5033169;28;20033;-74
2021/04/30 10:33:29;;;;;;;15.15;6.93;;;11.10;95.10;;;;;;5034005;28;20493;-74
2021/04/30 10:36:31;;;;;;;11.63;6.20;;;11.00;95.60;;;;;;5034216;28;20433;-74
2021/04/30 10:38:59;;;;;;;;;;;11.20;94.40;;;;;;5033894;28;20037;-74
2021/04/30 10:41:34;;;;;;;9.68;6.10;;;11.40;93.70;;;;;;5034131;28;19913;-74
2021/04/30 10:44:23;;;;;;;17.08;9.13;;;11.30;94.60;;;;;;5033942;28;20076;-74
2021/04/30 10:47:04;;;;;;;11.30;7.05;;;11.10;95.30;;;;;;5034063;28;20025;-76
2021/04/30 10:49:30;;;;;;;;;;;11.30;94.10;;;;;;5034520;28;20037;-75
2021/04/30 10:52:05;;;;;;;12.27;5.80;;;11.30;93.30;;;;;;5033918;28;20258;-77
2021/04/30 10:54:39;;;;;;;11.07;6.05;;;11.00;93.70;;;;;;5052997;28;20060;-74
2021/04/30 10:57:12;;;;;;;12.65;6.10;;;11.30;94.00;;;;;;5053593;28;20385;-75
2021/04/30 10:59:38;;;;;;;11.57;6.57;;;11.10;94.50;;;;;;5053565;28;20095;-74
2021/04/30 11:02:56;;;;;;;14.98;6.03;;;10.70;94.70;;;;;;5053489;28;20064;-75
2021/04/30 11:05:20;;;;;;;12.18;6.45;;;10.80;95.20;;;;;;5051322;28;20049;-74
2021/04/30 11:07:53;;;;;;;13.32;6.15;;;10.90;95.90;;;;;;5051721;28;20118;-74
2021/04/30 11:10:27;;;;;;;9.13;5.68;;;11.10;94.10;;;;;;5052277;28;20131;-75
2021/04/30 11:13:00;;;;;;;11.18;6.45;;;11.00;93.30;;;;;;5053304;28;20055;-77
2021/04/30 11:15:45;;;;;;;11.10;5.40;;;10.80;93.40;;;;;;5053463;28;20461;-75
2021/04/30 11:18:23;;;;;;;14.05;7.75;;;11.10;94.30;;;;;;5052440;28;20033;-76
2021/04/30 11:21:12;;;;;;;11.32;6.53;;;11.50;93.00;;;;;;5051683;28;20029;-74
2021/04/30 11:23:55;;;;;;;17.63;8.45;;;11.70;92.60;;;;;;5023813;28;20040;-76
2021/04/30 11:26:30;;;;;;;12.57;6.55;;;11.70;91.60;;;;;;5048325;28;20029;-74
2021/04/30 11:28:59;;;;;;;9.68;6.07;;;11.40;92.30;;;;;;5048515;28;20041;-76
2021/04/30 11:31:32;;;;;;;16.27;6.30;;;11.30;93.10;;;;;;5033244;28;20108;-74
2021/04/30 11:34:12;;;;;;;10.00;5.57;;;11.60;93.10;;;;;;5033210;28;20394;-74
2021/04/30 11:36:43;;;;;;;8.90;5.40;;;11.60;93.00;;;;;;5033062;28;20477;-74
2021/04/30 11:39:18;;;;;;;;;;;11.60;93.00;;;;;;5048824;28;20040;-75
2021/04/30 11:41:45;;;;;;;10.65;5.88;;;11.40;92.40;;;;;;5032826;28;20449;-74
2021/04/30 11:44:11;;;;;;;13.40;6.15;;;11.40;92.40;;;;;;5032674;28;20044;-74
2021/04/30 11:46:38;;;;;;;35.75;12.38;;;11.30;99.90;;;;;;5032741;28;20029;-74
2021/04/30 11:49:05;;;;;;;21.05;7.10;;;11.20;99.90;;;;;;5032796;28;20060;-75
2021/04/30 11:51:46;;;;;;;10.35;5.47;;;11.30;97.40;;;;;;5031584;28;20052;-75
2021/04/30 11:54:12;;;;;;;12.13;6.60;;;11.00;93.40;;;;;;5062367;28;20075;-75
2021/04/30 11:56:38;;;;;;;11.82;6.55;;;11.00;96.10;;;;;;5052485;28;20041;-75
2021/04/30 11:59:18;;;;;;;15.00;6.57;;;11.00;96.50;;;;;;5052492;28;20397;-75
2021/04/30 12:02:04;;;;;;;14.38;6.97;;;10.70;96.50;;;;;;5052380;28;20044;-75
2021/04/30 12:04:54;;;;;;;12.95;6.35;;;10.90;96.30;;;;;;5052600;28;20113;-75
2021/04/30 12:07:26;;;;;;;14.52;6.85;;;11.10;95.40;;;;;;5052259;28;20037;-75
2021/04/30 12:09:53;;;;;;;11.07;6.70;;;10.50;96.50;;;;;;5052170;28;20086;-75
2021/04/30 12:12:27;;;;;;;15.02;7.03;;;10.50;97.20;;;;;;5050995;28;20111;-75
2021/04/30 12:15:04;;;;;;;13.68;7.57;;;10.70;96.70;;;;;;5046236;28;20025;-76
2021/04/30 12:17:40;;;;;;;14.77;7.80;;;11.00;96.90;;;;;;5051960;28;20120;-75
2021/04/30 12:20:23;;;;;;;12.40;7.45;;;11.10;96.90;;;;;;5052297;28;20028;-75
2021/04/30 12:23:04;;;;;;;11.80;6.97;;;11.10;96.70;;;;;;5028614;28;20049;-75
2021/04/30 12:25:45;;;;;;;12.10;6.93;;;10.70;97.30;;;;;;5032275;28;20059;-75
2021/04/30 12:28:21;;;;;;;14.07;7.33;;;10.80;97.80;;;;;;5032379;28;20508;-75
2021/04/30 12:30:52;;;;;;;12.48;6.93;;;10.80;97.60;;;;;;5014139;28;20281;-76
2021/04/30 12:33:38;;;;;;;12.70;6.55;;;11.20;95.30;;;;;;5031803;28;20559;-75
2021/04/30 12:36:11;;;;;;;11.15;7.10;;;11.40;95.20;;;;;;5031884;28;20050;-75
2021/04/30 12:38:40;;;;;;;12.07;5.80;;;10.90;95.70;;;;;;5032329;28;20033;-74
2021/04/30 12:41:28;;;;;;;8.10;5.50;;;11.10;94.80;;;;;;5031651;28;20065;-74
2021/04/30 12:44:00;;;;;;;8.85;5.07;;;11.10;94.00;;;;;;5031661;28;20036;-74
2021/04/30 12:46:32;;;;;;;14.13;4.97;;;11.30;93.40;;;;;;5030885;28;20041;-75
2021/04/30 12:49:08;;;;;;;7.82;4.63;;;11.30;92.30;;;;;;5029106;28;20061;-74
2021/04/30 12:51:37;;;;;;;9.95;5.43;;;11.20;92.30;;;;;;5047132;28;20037;-75
2021/04/30 12:54:04;;;;;;;8.63;4.20;;;11.30;92.60;;;;;;5013632;28;20037;-74